createdAt,value
2023-04-20T00:00:25.421Z,58.02
2023-04-20T00:02:52.145Z,58.28
2023-04-20T00:05:18.878Z,57.94
2023-04-20T00:07:45.346Z,58.40
2023-04-20T00:10:11.868Z,58.12
2023-04-20T00:12:38.428Z,58.14
2023-04-20T00:15:05.411Z,59.03
2023-04-20T00:17:32.120Z,58.70
2023-04-20T00:19:58.596Z,59.09
2023-04-20T00:22:26.249Z,59.74
2023-04-20T00:24:52.671Z,58.84
2023-04-20T00:27:19.126Z,58.34
2023-04-20T00:29:45.536Z,59.84
2023-04-20T00:32:12.036Z,58.74
2023-04-20T00:34:39.247Z,57.82
2023-04-20T00:37:06.215Z,58.55
2023-04-20T00:39:32.715Z,58.38
2023-04-20T00:42:06.784Z,57.97
2023-04-20T00:44:33.446Z,57.94
2023-04-20T00:47:00.495Z,56.92
2023-04-20T00:49:30.010Z,58.72
2023-04-20T00:52:00.990Z,58.34
2023-04-20T00:54:29.060Z,57.91
2023-04-20T00:56:57.905Z,58.51
2023-04-20T00:59:24.384Z,59.17
2023-04-20T01:01:51.170Z,57.76
2023-04-20T01:04:18.769Z,57.76
2023-04-20T01:06:45.426Z,59.77
2023-04-20T01:09:12.521Z,58.55
2023-04-20T01:11:39.385Z,58.02
2023-04-20T01:14:06.477Z,58.19
2023-04-20T01:16:34.921Z,59.56
2023-04-20T01:19:01.559Z,59.14
2023-04-20T01:21:28.276Z,59.16
2023-04-20T01:23:54.750Z,60.41
2023-04-20T01:26:25.969Z,60.60
2023-04-20T01:28:52.835Z,60.07
2023-04-20T01:31:19.648Z,60.40
2023-04-20T01:33:46.466Z,60.31
2023-04-20T01:36:13.476Z,59.40
2023-04-20T01:38:40.168Z,60.70
2023-04-20T01:41:09.061Z,60.89
2023-04-20T01:43:37.212Z,59.58
2023-04-20T01:46:04.024Z,60.84
2023-04-20T01:48:30.480Z,61.85
2023-04-20T01:50:56.930Z,60.72
2023-04-20T01:53:23.526Z,60.79
2023-04-20T01:55:50.546Z,62.08
2023-04-20T01:58:17.257Z,62.91
2023-04-20T02:00:44.266Z,63.40
2023-04-20T02:03:11.235Z,64.11
2023-04-20T02:05:37.784Z,64.16
2023-04-20T02:08:04.938Z,62.92
2023-04-20T02:10:31.423Z,62.75
2023-04-20T02:12:57.880Z,62.08
2023-04-20T02:15:24.338Z,62.93
2023-04-20T02:17:52.181Z,63.84
2023-04-20T02:20:19.975Z,64.30
2023-04-20T02:22:46.517Z,65.59
2023-04-20T02:25:13.761Z,64.39
2023-04-20T02:27:40.292Z,63.94
2023-04-20T02:30:08.264Z,65.85
2023-04-20T02:32:35.144Z,63.25
2023-04-20T02:35:01.822Z,63.88
2023-04-20T02:37:28.378Z,63.31
2023-04-20T02:39:54.811Z,63.05
2023-04-20T02:42:21.305Z,64.16
2023-04-20T02:44:47.770Z,64.17
2023-04-20T02:47:14.269Z,64.51
2023-04-20T02:49:40.960Z,64.51
2023-04-20T02:52:07.430Z,64.05
2023-04-20T02:54:34.475Z,64.34
2023-04-20T02:57:01.565Z,64.67
2023-04-20T02:59:28.118Z,65.25
2023-04-20T03:01:54.623Z,64.53
2023-04-20T03:04:21.986Z,63.38
2023-04-20T03:06:50.375Z,64.48
2023-04-20T03:09:17.275Z,63.48
2023-04-20T03:11:45.635Z,63.32
2023-04-20T03:14:12.096Z,64.10
2023-04-20T03:16:38.655Z,63.93
2023-04-20T03:19:05.219Z,64.19
2023-04-20T03:21:33.020Z,65.07
2023-04-20T03:24:02.773Z,64.91
2023-04-20T03:26:29.346Z,64.52
2023-04-20T03:28:55.942Z,65.88
2023-04-20T03:31:22.498Z,66.97
2023-04-20T03:33:48.965Z,69.34
2023-04-20T03:36:15.433Z,69.27
2023-04-20T03:38:41.849Z,69.25
2023-04-20T03:41:08.359Z,69.15
2023-04-20T03:43:35.697Z,68.88
2023-04-20T03:46:02.181Z,69.79
2023-04-20T03:48:28.689Z,70.71
2023-04-20T03:50:55.220Z,70.82
2023-04-20T03:53:21.810Z,70.11
2023-04-20T03:55:48.236Z,70.38
2023-04-20T03:58:15.004Z,71.43
2023-04-20T04:00:41.429Z,71.26
2023-04-20T04:03:07.987Z,71.74
2023-04-20T04:05:34.764Z,73.47
2023-04-20T04:08:01.365Z,74.55
2023-04-20T04:10:27.894Z,74.38
2023-04-20T04:12:54.393Z,74.58
2023-04-20T04:15:20.908Z,76.02
2023-04-20T04:17:48.401Z,77.37
2023-04-20T04:20:15.072Z,78.35
2023-04-20T04:22:42.155Z,78.78
2023-04-20T04:25:09.087Z,80.54
2023-04-20T04:27:35.492Z,80.90
2023-04-20T04:30:02.675Z,81.53
2023-04-20T04:32:29.091Z,81.86
2023-04-20T04:34:55.640Z,82.99
2023-04-20T04:37:22.522Z,84.27
2023-04-20T04:39:51.148Z,84.29
2023-04-20T04:42:17.647Z,84.70
2023-04-20T04:44:45.028Z,86.38
2023-04-20T04:47:14.545Z,86.91
2023-04-20T04:49:41.034Z,87.37
2023-04-20T04:52:08.756Z,88.60
2023-04-20T04:54:35.298Z,90.26
2023-04-20T04:57:02.881Z,90.40
2023-04-20T04:59:29.380Z,92.00
2023-04-20T05:01:55.938Z,93.39
2023-04-20T05:04:22.601Z,94.54
2023-04-20T05:06:49.197Z,94.37
2023-04-20T05:09:16.207Z,94.98
2023-04-20T05:11:42.903Z,95.04
2023-04-20T05:14:09.481Z,96.38
2023-04-20T05:16:36.019Z,96.95
2023-04-20T05:19:02.479Z,97.15
2023-04-20T05:21:28.997Z,97.20
2023-04-20T05:23:55.504Z,97.64
2023-04-20T05:26:21.989Z,97.54
2023-04-20T05:28:48.432Z,98.70
2023-04-20T05:31:14.906Z,99.25
2023-04-20T05:33:41.394Z,99.21
2023-04-20T05:36:11.668Z,99.54
2023-04-20T05:38:39.155Z,99.12
2023-04-20T05:41:05.749Z,99.95
2023-04-20T05:43:32.150Z,100.00
2023-04-20T05:45:58.764Z,100.00
2023-04-20T05:48:29.561Z,100.00
2023-04-20T05:50:56.555Z,100.00
2023-04-20T05:53:23.037Z,100.00
2023-04-20T05:55:49.516Z,100.00
2023-04-20T05:58:17.024Z,100.00
2023-04-20T06:00:44.330Z,100.00
2023-04-20T06:03:10.955Z,100.00
2023-04-20T06:05:37.637Z,100.00
2023-04-20T06:08:04.322Z,100.00
2023-04-20T06:10:32.443Z,100.00
2023-04-20T06:12:58.998Z,100.00
2023-04-20T06:15:25.563Z,100.00
2023-04-20T06:17:52.023Z,100.00
2023-04-20T06:20:19.712Z,100.00
2023-04-20T06:22:46.765Z,100.00
2023-04-20T06:25:13.958Z,100.00
2023-04-20T06:27:40.673Z,100.00
2023-04-20T06:30:07.925Z,100.00
2023-04-20T06:32:34.406Z,100.00
2023-04-20T06:35:00.950Z,100.00
2023-04-20T06:37:28.039Z,100.00
2023-04-20T06:39:57.462Z,100.00
2023-04-20T06:42:23.955Z,100.00
2023-04-20T06:44:50.923Z,100.00
2023-04-20T06:47:17.465Z,100.00
2023-04-20T06:49:43.980Z,100.00
2023-04-20T06:52:10.497Z,100.00
2023-04-20T06:54:36.962Z,100.00
2023-04-20T06:57:03.392Z,100.00
2023-04-20T06:59:29.949Z,100.00
2023-04-20T07:01:56.433Z,100.00
2023-04-20T07:04:22.998Z,100.00
2023-04-20T07:06:51.684Z,100.00
2023-04-20T07:09:19.881Z,100.00
2023-04-20T07:11:46.486Z,100.00
2023-04-20T07:14:12.893Z,100.00
2023-04-20T07:16:39.363Z,100.00
2023-04-20T07:19:05.950Z,100.00
2023-04-20T07:21:32.347Z,100.00
2023-04-20T07:23:59.134Z,100.00
2023-04-20T07:26:25.836Z,100.00
2023-04-20T07:28:52.549Z,100.00
2023-04-20T07:31:19.124Z,100.00
2023-04-20T07:33:45.654Z,100.00
2023-04-20T07:36:12.137Z,100.00
2023-04-20T07:38:38.697Z,100.00
2023-04-20T07:41:12.973Z,100.00
2023-04-20T07:43:39.478Z,100.00
2023-04-20T07:46:06.106Z,100.00
2023-04-20T07:48:34.320Z,100.00
2023-04-20T07:51:01.149Z,100.00
2023-04-20T07:53:29.138Z,100.00
2023-04-20T07:55:55.700Z,100.00
2023-04-20T07:58:22.167Z,100.00
2023-04-20T08:00:48.923Z,100.00
2023-04-20T08:03:15.771Z,100.00
2023-04-20T08:05:42.556Z,100.00
2023-04-20T08:08:09.058Z,100.00
2023-04-20T08:10:36.482Z,100.00
2023-04-20T08:13:02.971Z,100.00
2023-04-20T08:15:29.561Z,100.00
2023-04-20T08:17:56.894Z,100.00
2023-04-20T08:20:23.460Z,100.00
2023-04-20T08:22:50.954Z,100.00
2023-04-20T08:25:17.543Z,100.00
2023-04-20T08:27:44.252Z,100.00
2023-04-20T08:30:11.402Z,100.00
2023-04-20T08:32:37.946Z,100.00
2023-04-20T08:35:05.296Z,100.00
2023-04-20T08:37:33.015Z,100.00
2023-04-20T08:39:59.731Z,100.00
2023-04-20T08:42:26.255Z,100.00
2023-04-20T08:44:52.960Z,100.00
2023-04-20T08:47:20.630Z,100.00
2023-04-20T08:49:52.205Z,100.00
2023-04-20T08:52:18.786Z,100.00
2023-04-20T08:54:56.028Z,100.00
2023-04-20T08:57:25.075Z,100.00
2023-04-20T08:59:51.870Z,100.00
2023-04-20T09:02:18.432Z,100.00
2023-04-20T09:04:48.979Z,100.00
2023-04-20T09:07:20.372Z,100.00
2023-04-20T09:10:00.638Z,100.00
2023-04-20T09:12:28.197Z,100.00
2023-04-20T09:14:55.870Z,100.00
2023-04-20T09:17:37.198Z,100.00
2023-04-20T09:20:08.451Z,100.00
2023-04-20T09:22:36.698Z,100.00
2023-04-20T09:25:16.320Z,100.00
2023-04-20T09:27:42.847Z,100.00
2023-04-20T09:30:09.981Z,100.00
2023-04-20T09:32:36.502Z,100.00
2023-04-20T09:35:03.053Z,100.00
2023-04-20T09:37:29.520Z,100.00
2023-04-20T09:40:00.189Z,100.00
2023-04-20T09:42:28.372Z,100.00
2023-04-20T09:44:55.848Z,100.00
2023-04-20T09:47:22.519Z,100.00
2023-04-20T09:49:50.143Z,100.00
2023-04-20T09:52:21.007Z,100.00
2023-04-20T09:54:47.644Z,100.00
2023-04-20T09:57:14.749Z,100.00
2023-04-20T09:59:43.790Z,100.00
2023-04-20T10:02:12.551Z,100.00
2023-04-20T10:05:01.356Z,100.00
2023-04-20T10:07:29.513Z,100.00
2023-04-20T10:10:07.793Z,100.00
2023-04-20T10:12:36.988Z,100.00
2023-04-20T10:15:04.337Z,100.00
2023-04-20T10:17:34.256Z,100.00
2023-04-20T10:20:00.827Z,100.00
2023-04-20T10:22:33.532Z,100.00
2023-04-20T10:25:01.266Z,100.00
2023-04-20T10:27:28.134Z,100.00
2023-04-20T10:29:54.625Z,100.00
2023-04-20T10:32:30.340Z,100.00
2023-04-20T10:35:08.705Z,100.00
2023-04-20T10:37:36.033Z,100.00
2023-04-20T10:40:07.519Z,100.00
2023-04-20T10:42:42.534Z,100.00
2023-04-20T10:45:10.820Z,100.00
2023-04-20T10:47:40.496Z,100.00
2023-04-20T10:50:12.838Z,100.00
2023-04-20T10:52:41.123Z,100.00
2023-04-20T10:55:19.116Z,100.00
2023-04-20T10:57:45.818Z,100.00
2023-04-20T11:00:20.618Z,100.00
2023-04-20T11:02:57.316Z,100.00
2023-04-20T11:05:26.358Z,100.00
2023-04-20T11:07:57.676Z,100.00
2023-04-20T11:10:44.359Z,100.00
2023-04-20T11:13:22.359Z,100.00
2023-04-20T11:15:48.911Z,100.00
2023-04-20T11:18:15.702Z,100.00
2023-04-20T11:20:53.169Z,100.00
2023-04-20T11:23:25.307Z,100.00
2023-04-20T11:25:56.699Z,100.00
2023-04-20T11:28:23.368Z,100.00
2023-04-20T11:30:50.884Z,100.00
2023-04-20T11:33:35.627Z,100.00
2023-04-20T11:36:02.248Z,100.00
2023-04-20T11:38:34.049Z,100.00
2023-04-20T11:41:04.659Z,100.00
2023-04-20T11:43:32.151Z,99.55
2023-04-20T11:45:59.981Z,97.08
2023-04-20T11:48:27.550Z,96.79
2023-04-20T11:50:54.032Z,99.16
2023-04-20T11:53:21.077Z,99.97
2023-04-20T11:55:47.661Z,93.55
2023-04-20T11:58:14.140Z,92.85
2023-04-20T12:00:40.705Z,93.31
2023-04-20T12:03:07.369Z,93.61
2023-04-20T12:05:34.093Z,94.17
2023-04-20T12:08:00.595Z,93.89
2023-04-20T12:10:27.064Z,92.85
2023-04-20T12:12:53.730Z,90.44
2023-04-20T12:15:20.321Z,89.38
2023-04-20T12:17:47.194Z,89.95
2023-04-20T12:20:14.422Z,91.07
2023-04-20T12:22:41.023Z,88.94
2023-04-20T12:25:08.004Z,84.83
2023-04-20T12:27:34.485Z,82.56
2023-04-20T12:30:01.012Z,78.48
2023-04-20T12:32:27.540Z,76.59
2023-04-20T12:34:54.096Z,74.30
2023-04-20T12:37:20.812Z,74.01
2023-04-20T12:39:47.316Z,73.65
2023-04-20T12:42:13.850Z,73.33
2023-04-20T12:44:40.304Z,73.25
2023-04-20T12:47:06.940Z,72.02
2023-04-20T12:49:33.861Z,69.33
2023-04-20T12:52:00.515Z,69.95
2023-04-20T12:54:26.990Z,68.57
2023-04-20T12:56:53.440Z,68.69
2023-04-20T12:59:19.894Z,68.46
2023-04-20T13:01:46.434Z,69.59
2023-04-20T13:04:16.049Z,71.31
2023-04-20T13:06:43.546Z,71.06
2023-04-20T13:09:10.012Z,71.50
2023-04-20T13:11:36.547Z,73.06
2023-04-20T13:14:03.014Z,73.39
2023-04-20T13:16:29.634Z,73.70
2023-04-20T13:18:56.388Z,74.14
2023-04-20T13:21:22.907Z,74.47
2023-04-20T13:23:49.364Z,74.44
2023-04-20T13:26:15.883Z,73.73
2023-04-20T13:28:42.386Z,70.96
2023-04-20T13:31:08.970Z,69.20
2023-04-20T13:33:35.803Z,69.06
2023-04-20T13:36:02.395Z,67.78
2023-04-20T13:38:29.023Z,69.38
2023-04-20T13:40:55.658Z,67.19
2023-04-20T13:43:22.200Z,64.41
2023-04-20T13:45:48.797Z,64.88
2023-04-20T13:48:15.322Z,63.92
2023-04-20T13:50:42.012Z,64.21
2023-04-20T13:53:08.458Z,63.00
2023-04-20T13:55:35.035Z,61.44
2023-04-20T13:58:01.620Z,61.08
2023-04-20T14:00:28.207Z,60.11
2023-04-20T14:02:54.815Z,58.78
2023-04-20T14:05:21.427Z,58.18
2023-04-20T14:07:47.901Z,59.34
2023-04-20T14:10:14.392Z,57.76
2023-04-20T14:12:40.952Z,59.61
2023-04-20T14:15:07.872Z,59.42
2023-04-20T14:17:34.402Z,59.18
2023-04-20T14:20:02.001Z,59.24
2023-04-20T14:22:34.275Z,62.79
2023-04-20T14:25:00.740Z,62.68
2023-04-20T14:27:27.171Z,61.13
2023-04-20T14:29:53.648Z,60.81
2023-04-20T14:32:20.228Z,61.07
2023-04-20T14:34:46.773Z,60.86
2023-04-20T14:37:13.246Z,59.92
2023-04-20T14:39:39.911Z,59.75
2023-04-20T14:42:07.563Z,59.45
2023-04-20T14:44:34.035Z,58.07
2023-04-20T14:47:01.733Z,57.92
2023-04-20T14:49:28.609Z,57.35
2023-04-20T14:51:55.122Z,58.15
2023-04-20T14:54:21.541Z,57.82
2023-04-20T14:56:48.032Z,58.51
2023-04-20T14:59:14.743Z,59.12
2023-04-20T15:01:51.354Z,57.84
2023-04-20T15:04:25.819Z,58.62
2023-04-20T15:06:52.694Z,57.46
2023-04-20T15:09:19.139Z,58.61
2023-04-20T15:11:45.696Z,58.59
2023-04-20T15:14:12.161Z,58.87
2023-04-20T15:16:38.674Z,59.38
2023-04-20T15:19:05.094Z,60.11
2023-04-20T15:21:32.245Z,60.43
2023-04-20T15:23:58.845Z,58.04
2023-04-20T15:26:25.599Z,57.48
2023-04-20T15:28:52.049Z,57.08
2023-04-20T15:31:19.132Z,56.52
2023-04-20T15:33:47.932Z,56.64
2023-04-20T15:36:17.484Z,57.16
2023-04-20T15:38:43.906Z,58.06
2023-04-20T15:41:10.432Z,58.14
2023-04-20T15:43:36.945Z,57.02
2023-04-20T15:46:03.612Z,58.78
2023-04-20T15:48:30.280Z,58.00
2023-04-20T15:50:57.031Z,58.57
2023-04-20T15:53:24.310Z,58.84
2023-04-20T15:55:51.482Z,59.94
2023-04-20T15:58:18.151Z,59.95
2023-04-20T16:00:44.972Z,59.58
2023-04-20T16:03:11.711Z,59.02
2023-04-20T16:05:38.266Z,59.36
2023-04-20T16:08:05.557Z,58.99
2023-04-20T16:10:32.191Z,56.90
2023-04-20T16:12:58.680Z,56.28
2023-04-20T16:15:25.331Z,56.45
2023-04-20T16:17:51.857Z,57.09
2023-04-20T16:20:18.403Z,58.56
2023-04-20T16:22:44.886Z,57.20
2023-04-20T16:25:14.244Z,56.85
2023-04-20T16:27:40.695Z,55.28
2023-04-20T16:30:08.417Z,54.26
2023-04-20T16:32:34.988Z,55.29
2023-04-20T16:35:01.696Z,54.56
2023-04-20T16:37:30.344Z,55.21
2023-04-20T16:39:56.749Z,55.24
2023-04-20T16:42:23.160Z,55.24
2023-04-20T16:44:49.631Z,55.95
2023-04-20T16:47:16.070Z,55.07
2023-04-20T16:49:42.697Z,55.77
2023-04-20T16:52:10.481Z,56.13
2023-04-20T16:54:37.266Z,54.90
2023-04-20T16:57:03.698Z,54.09
2023-04-20T16:59:30.219Z,53.90
2023-04-20T17:01:56.697Z,55.51
2023-04-20T17:04:23.651Z,54.62
2023-04-20T17:06:51.630Z,56.30
2023-04-20T17:09:18.461Z,55.14
2023-04-20T17:11:45.391Z,55.93
2023-04-20T17:14:12.093Z,55.84
2023-04-20T17:16:41.420Z,56.50
2023-04-20T17:19:07.933Z,56.01
2023-04-20T17:21:39.011Z,56.85
2023-04-20T17:24:05.920Z,56.71
2023-04-20T17:26:32.559Z,57.63
2023-04-20T17:28:59.354Z,58.85
2023-04-20T17:31:25.884Z,59.50
2023-04-20T17:33:52.544Z,60.70
2023-04-20T17:36:19.055Z,62.34
2023-04-20T17:38:45.600Z,64.26
2023-04-20T17:41:12.135Z,65.71
2023-04-20T17:43:40.434Z,67.40
2023-04-20T17:46:07.812Z,68.68
2023-04-20T17:48:34.354Z,69.51
2023-04-20T17:51:00.982Z,69.13
2023-04-20T17:53:27.681Z,68.64
2023-04-20T17:55:54.166Z,70.12
2023-04-20T17:58:20.618Z,70.91
2023-04-20T18:00:47.704Z,70.96
2023-04-20T18:03:14.888Z,71.53
2023-04-20T18:05:41.949Z,71.99
2023-04-20T18:08:10.084Z,73.60
2023-04-20T18:10:37.436Z,74.01
2023-04-20T18:13:03.985Z,74.82
2023-04-20T18:15:30.509Z,75.68
2023-04-20T18:17:57.051Z,76.47
2023-04-20T18:20:23.867Z,77.39
2023-04-20T18:22:50.552Z,77.85
2023-04-20T18:25:18.898Z,78.98
2023-04-20T18:27:45.921Z,80.79
2023-04-20T18:30:13.807Z,81.75
2023-04-20T18:32:40.863Z,83.52
2023-04-20T18:35:08.452Z,83.89
2023-04-20T18:37:35.024Z,85.23
2023-04-20T18:40:01.474Z,85.67
2023-04-20T18:42:28.022Z,86.95
2023-04-20T18:44:55.898Z,87.84
2023-04-20T18:47:24.533Z,88.00
2023-04-20T18:49:53.142Z,89.33
2023-04-20T18:52:20.077Z,91.35
2023-04-20T18:54:47.515Z,91.77
2023-04-20T18:57:14.489Z,92.43
2023-04-20T18:59:40.978Z,93.93
2023-04-20T19:02:07.579Z,93.35
2023-04-20T19:04:36.208Z,93.25
2023-04-20T19:07:02.733Z,93.99
2023-04-20T19:09:29.197Z,94.27
2023-04-20T19:11:55.679Z,93.90
2023-04-20T19:14:22.429Z,93.57
2023-04-20T19:16:48.917Z,93.54
2023-04-20T19:19:15.469Z,93.36
2023-04-20T19:21:41.940Z,94.49
2023-04-20T19:24:08.455Z,94.69
2023-04-20T19:26:34.905Z,95.61
2023-04-20T19:29:01.460Z,96.54
2023-04-20T19:31:32.180Z,96.34
2023-04-20T19:33:58.813Z,95.62
2023-04-20T19:36:25.327Z,97.06
2023-04-20T19:38:51.750Z,96.66
2023-04-20T19:41:18.191Z,98.42
2023-04-20T19:43:44.580Z,99.20
2023-04-20T19:46:11.665Z,100.00
2023-04-20T19:48:38.214Z,100.00
2023-04-20T19:51:06.160Z,100.00
2023-04-20T19:53:33.523Z,100.00
2023-04-20T19:56:00.889Z,100.00
2023-04-20T19:58:28.008Z,100.00
2023-04-20T20:00:54.563Z,100.00
2023-04-20T20:03:21.692Z,100.00
2023-04-20T20:05:49.304Z,100.00
2023-04-20T20:08:20.437Z,100.00
2023-04-20T20:10:57.157Z,100.00
2023-04-20T20:13:23.691Z,100.00
2023-04-20T20:15:52.217Z,100.00
2023-04-20T20:18:22.381Z,100.00
2023-04-20T20:20:51.325Z,100.00
2023-04-20T20:23:23.477Z,100.00
2023-04-20T20:25:50.392Z,100.00
2023-04-20T20:28:17.563Z,100.00
2023-04-20T20:30:45.634Z,100.00
2023-04-20T20:33:15.918Z,100.00
2023-04-20T20:35:42.793Z,100.00
2023-04-20T20:38:11.185Z,100.00
2023-04-20T20:40:39.677Z,100.00
2023-04-20T20:43:06.144Z,100.00
2023-04-20T20:45:33.789Z,100.00
2023-04-20T20:48:02.055Z,100.00
2023-04-20T20:50:29.508Z,100.00
2023-04-20T20:52:58.920Z,100.00
2023-04-20T20:55:25.750Z,100.00
2023-04-20T20:57:55.228Z,100.00
2023-04-20T21:00:21.677Z,100.00
2023-04-20T21:02:48.247Z,100.00
2023-04-20T21:05:14.937Z,100.00
2023-04-20T21:07:41.488Z,100.00
2023-04-20T21:10:12.161Z,100.00
2023-04-20T21:12:44.634Z,100.00
2023-04-20T21:15:15.209Z,100.00
2023-04-20T21:17:43.624Z,100.00
2023-04-20T21:20:11.899Z,100.00
2023-04-20T21:22:38.872Z,100.00
2023-04-20T21:25:09.139Z,100.00
2023-04-20T21:27:35.651Z,100.00
2023-04-20T21:30:02.360Z,100.00
2023-04-20T21:32:32.060Z,100.00
2023-04-20T21:34:58.506Z,100.00
2023-04-20T21:37:25.006Z,100.00
2023-04-20T21:39:55.828Z,100.00
2023-04-20T21:42:26.959Z,100.00
2023-04-20T21:45:19.669Z,100.00
2023-04-20T21:47:46.592Z,100.00
2023-04-20T21:50:13.350Z,100.00
2023-04-20T21:52:48.729Z,100.00
2023-04-20T21:55:16.680Z,100.00
2023-04-20T21:57:43.156Z,100.00
2023-04-20T22:00:10.297Z,100.00
2023-04-20T22:02:36.865Z,100.00
2023-04-20T22:05:04.361Z,100.00
2023-04-20T22:07:32.627Z,100.00
2023-04-20T22:10:01.017Z,100.00
2023-04-20T22:12:38.449Z,100.00
2023-04-20T22:15:08.808Z,100.00
2023-04-20T22:17:35.694Z,100.00
2023-04-20T22:20:04.023Z,100.00
2023-04-20T22:22:30.412Z,100.00
2023-04-20T22:24:56.813Z,100.00
2023-04-20T22:27:23.217Z,100.00
2023-04-20T22:29:49.673Z,100.00
2023-04-20T22:32:16.112Z,100.00
2023-04-20T22:34:42.553Z,100.00
2023-04-20T22:37:09.018Z,100.00
2023-04-20T22:39:35.615Z,100.00
2023-04-20T22:42:02.227Z,100.00
2023-04-20T22:44:28.645Z,100.00
2023-04-20T22:46:55.142Z,100.00
2023-04-20T22:49:23.134Z,100.00
2023-04-20T22:51:49.808Z,100.00
2023-04-20T22:54:16.235Z,100.00
2023-04-20T22:56:42.915Z,100.00
2023-04-20T22:59:09.386Z,100.00
2023-04-20T23:01:35.857Z,100.00
2023-04-20T23:04:02.484Z,100.00
2023-04-20T23:06:29.652Z,100.00
2023-04-20T23:08:59.137Z,100.00
2023-04-20T23:11:29.039Z,100.00
2023-04-20T23:13:55.864Z,100.00
2023-04-20T23:16:23.208Z,100.00
2023-04-20T23:18:49.725Z,100.00
2023-04-20T23:21:16.146Z,100.00
2023-04-20T23:23:42.622Z,100.00
2023-04-20T23:26:09.027Z,100.00
2023-04-20T23:28:35.697Z,100.00
2023-04-20T23:31:02.241Z,100.00
2023-04-20T23:33:29.021Z,100.00
2023-04-20T23:35:55.540Z,100.00
2023-04-20T23:38:22.046Z,100.00
2023-04-20T23:40:48.572Z,100.00
2023-04-20T23:43:15.044Z,100.00
2023-04-20T23:45:41.660Z,100.00
2023-04-20T23:48:08.211Z,100.00
2023-04-20T23:50:36.901Z,100.00
2023-04-20T23:53:05.573Z,100.00
2023-04-20T23:55:32.616Z,100.00
2023-04-20T23:57:59.049Z,100.00
